Time;durP1;ratioP1;P1;durP2;ratioP2;P2;SDS_P1;SDS_P2;PMS_P1;PMS_P2;Temp;Humidity;BMP_temperature;BMP_pressure;BME280_temperature;BME280_humidity;BME280_pressure;Samples;Min_cycle;Max_cycle;Signal;HPM_P1;HPM_P2
2024/02/01 00:01:14;;;;;;;5.70;4.13;;;;;;;7.47;70.41;101814.13;4947479;28;96919;-79
2024/02/01 00:03:41;;;;;;;9.55;4.18;;;;;;;7.68;69.89;101803.44;4944763;28;102128;-78
2024/02/01 00:06:08;;;;;;;8.93;4.28;;;;;;;7.45;70.14;101800.09;4936746;28;100887;-80
2024/02/01 00:08:35;;;;;;;7.47;4.82;;;;;;;7.37;70.97;101807.16;4946445;28;97248;-79
2024/02/01 00:11:01;;;;;;;7.85;4.90;;;;;;;7.97;68.38;101790.97;4943809;28;96866;-79
2024/02/01 00:13:28;;;;;;;6.57;4.88;;;;;;;8.01;67.92;101779.50;4947367;28;98982;-79
2024/02/01 00:15:54;;;;;;;8.63;4.30;;;;;;;7.22;69.73;101780.06;4950797;28;99004;-79
2024/02/01 00:18:21;;;;;;;7.43;4.95;;;;;;;7.17;71.33;101771.34;4945590;28;97241;-78
2024/02/01 00:20:47;;;;;;;7.07;4.28;;;;;;;7.33;70.65;101766.00;4946679;28;96985;-78
2024/02/01 00:23:15;;;;;;;6.97;4.70;;;;;;;7.86;68.55;101768.25;4947699;28;99261;-78
2024/02/01 00:25:41;;;;;;;8.57;5.85;;;;;;;8.18;66.55;101760.06;4952159;28;97527;-79
2024/02/01 00:28:08;;;;;;;9.65;5.10;;;;;;;7.68;68.12;101755.25;4949985;28;97969;-79
2024/02/01 00:30:34;;;;;;;11.00;4.72;;;;;;;7.41;69.60;101759.81;4949956;28;97566;-78
2024/02/01 00:33:00;;;;;;;8.48;4.80;;;;;;;7.99;67.35;101756.75;4946186;28;98909;-79
2024/02/01 00:35:27;;;;;;;8.95;5.20;;;;;;;8.17;66.64;101751.28;4950486;28;100605;-80
2024/02/01 00:37:53;;;;;;;9.77;4.53;;;;;;;8.46;65.46;101742.25;4949087;28;97266;-76
2024/02/01 00:40:21;;;;;;;9.23;4.95;;;;;;;8.50;64.71;101733.44;4949527;28;98411;-76
2024/02/01 00:42:47;;;;;;;8.00;5.32;;;;;;;8.59;64.16;101731.56;4945737;28;98970;-75
2024/02/01 00:45:14;;;;;;;8.05;4.57;;;;;;;8.61;64.36;101728.91;4949495;28;98055;-76
2024/02/01 00:47:40;;;;;;;8.68;4.43;;;;;;;8.50;64.08;101738.69;4944931;28;96803;-76
2024/02/01 00:50:07;;;;;;;6.47;4.22;;;;;;;8.04;66.11;101728.59;4948239;28;97918;-77
2024/02/01 00:52:33;;;;;;;7.18;4.78;;;;;;;8.00;66.53;101729.53;4946375;28;98869;-77
2024/02/01 00:55:00;;;;;;;7.40;4.80;;;;;;;8.20;66.00;101726.72;4944879;28;99089;-77
2024/02/01 00:57:27;;;;;;;7.38;4.93;;;;;;;8.29;66.00;101716.94;4945493;28;97102;-77
2024/02/01 00:59:54;;;;;;;8.07;4.72;;;;;;;8.25;65.37;101714.34;4948595;28;97196;-76
2024/02/01 01:02:20;;;;;;;9.70;4.72;;;;;;;8.05;66.04;101714.56;4946315;28;98810;-76
2024/02/01 01:04:46;;;;;;;8.35;5.20;;;;;;;8.07;66.66;101709.28;4949373;28;98883;-77
2024/02/01 01:07:13;;;;;;;8.45;5.30;;;;;;;8.06;66.75;101705.78;4947906;28;98251;-77
2024/02/01 01:09:39;;;;;;;8.00;5.63;;;;;;;7.98;66.55;101694.44;4948809;28;97269;-77
2024/02/01 01:12:06;;;;;;;8.73;4.75;;;;;;;8.04;67.46;101689.13;4943832;28;98429;-77
2024/02/01 01:14:34;;;;;;;10.38;5.15;;;;;;;8.05;66.20;101688.25;4948304;28;98904;-77
2024/02/01 01:17:00;;;;;;;7.45;4.47;;;;;;;8.33;65.47;101684.47;4948016;28;97047;-78
2024/02/01 01:19:27;;;;;;;7.97;4.88;;;;;;;7.72;67.71;101691.19;4945097;28;97658;-77
2024/02/01 01:21:53;;;;;;;8.45;4.85;;;;;;;7.70;68.56;101688.56;4946159;28;99156;-78
2024/02/01 01:24:19;;;;;;;8.73;5.70;;;;;;;7.92;67.02;101686.63;4947388;28;99182;-77
2024/02/01 01:26:46;;;;;;;9.32;6.13;;;;;;;8.13;66.29;101682.91;4954385;28;96767;-77
2024/02/01 01:29:12;;;;;;;9.63;5.55;;;;;;;7.88;66.65;101682.25;4950179;28;97159;-78
2024/02/01 01:31:42;;;;;;;9.02;5.13;;;;;;;7.91;66.95;101682.22;4948836;28;99452;-77
2024/02/01 01:34:08;;;;;;;10.18;5.15;;;;;;;8.12;65.92;101684.66;4950655;28;98627;-77
2024/02/01 01:36:34;;;;;;;6.82;5.20;;;;;;;7.86;67.05;101681.41;4952288;28;96782;-77
2024/02/01 01:39:01;;;;;;;11.82;5.70;;;;;;;8.12;66.13;101668.88;4951788;28;97044;-76
2024/02/01 01:41:28;;;;;;;8.48;5.10;;;;;;;8.04;66.41;101675.09;4949111;28;99420;-76
2024/02/01 01:43:54;;;;;;;7.43;4.80;;;;;;;7.94;67.33;101669.06;4947587;28;99213;-76
2024/02/01 01:46:21;;;;;;;7.95;5.30;;;;;;;7.91;67.28;101669.94;4952418;28;96879;-79
2024/02/01 01:48:49;;;;;;;7.68;5.20;;;;;;;8.37;65.29;101662.47;4952595;28;97657;-77
2024/02/01 01:51:17;;;;;;;10.23;5.45;;;;;;;8.70;63.67;101652.38;4950244;28;97746;-78
2024/02/01 01:53:45;;;;;;;7.90;5.00;;;;;;;8.38;64.50;101661.56;4950544;28;98813;-77
2024/02/01 01:56:12;;;;;;;5.68;4.32;;;;;;;7.94;66.41;101661.16;4950288;28;98413;-77
2024/02/01 01:58:40;;;;;;;7.00;4.95;;;;;;;8.24;66.13;101659.94;4952007;28;98904;-77
2024/02/01 02:01:09;;;;;;;7.22;4.53;;;;;;;8.19;66.06;101656.50;4948014;28;98884;-76
2024/02/01 02:03:38;;;;;;;9.32;4.90;;;;;;;8.24;65.83;101649.41;4953907;28;98740;-75
2024/02/01 02:06:07;;;;;;;11.68;4.97;;;;;;;8.06;66.61;101647.88;4949904;28;98766;-76
2024/02/01 02:08:34;;;;;;;8.40;5.45;;;;;;;8.22;66.38;101646.78;4950902;28;97120;-76
2024/02/01 02:11:00;;;;;;;8.18;5.05;;;;;;;8.00;66.97;101647.94;4948064;28;99227;-76
2024/02/01 02:13:27;;;;;;;6.75;4.00;;;;;;;7.94;67.16;101645.38;4950539;28;101644;-76
2024/02/01 02:15:53;;;;;;;8.65;4.95;;;;;;;8.07;66.78;101644.34;4950815;28;100096;-76
2024/02/01 02:18:19;;;;;;;9.57;4.90;;;;;;;7.80;68.86;101642.88;4952079;28;97889;-76
2024/02/01 02:20:51;;;;;;;7.00;5.18;;;;;;;8.41;67.67;101639.56;4948311;28;100117;-76
2024/02/01 02:23:20;;;;;;;8.52;5.20;;;;;;;7.80;69.85;101644.63;4949938;28;99463;-76
2024/02/01 02:25:48;;;;;;;7.65;4.50;;;;;;;7.52;71.65;101650.16;4948050;28;96772;-75
2024/02/01 02:28:14;;;;;;;9.18;5.05;;;;;;;7.42;73.50;101643.22;4951475;28;96997;-75
2024/02/01 02:30:41;;;;;;;10.27;5.07;;;;;;;7.49;75.00;101644.03;4947395;28;97660;-76
2024/02/01 02:33:07;;;;;;;11.35;5.82;;;;;;;7.60;76.47;101643.06;4947313;28;99612;-76
2024/02/01 02:35:33;;;;;;;12.52;5.15;;;;;;;7.04;80.24;101640.88;4950150;28;98425;-76
2024/02/01 02:38:00;;;;;;;9.73;5.97;;;;;;;7.18;80.66;101636.41;4952621;28;97308;-76
2024/02/01 02:40:27;;;;;;;9.32;5.47;;;;;;;7.46;80.10;101629.16;4948885;28;99404;-76
2024/02/01 02:42:54;;;;;;;11.13;5.05;;;;;;;7.63;79.93;101621.09;4947741;28;99018;-76
2024/02/01 02:45:20;;;;;;;8.75;5.03;;;;;;;7.63;80.64;101622.88;4952576;28;96830;-76
2024/02/01 02:47:47;;;;;;;7.57;5.43;;;;;;;7.45;82.05;101622.16;4951138;28;97643;-76
2024/02/01 02:50:13;;;;;;;10.10;5.65;;;;;;;7.75;81.62;101635.88;4943531;28;99392;-75
2024/02/01 02:52:42;;;;;;;13.30;5.50;;;;;;;7.61;80.66;101634.25;4948578;28;98905;-76
2024/02/01 02:55:09;;;;;;;11.25;6.13;;;;;;;7.46;82.16;101623.91;4952430;28;97386;-74
2024/02/01 02:57:37;;;;;;;8.50;5.63;;;;;;;7.12;85.01;101625.06;4946633;28;97567;-75
2024/02/01 03:00:05;;;;;;;7.05;4.85;;;;;;;7.18;85.18;101625.00;4950013;28;98767;-77
2024/02/01 03:02:31;;;;;;;8.80;5.78;;;;;;;7.27;84.60;101627.56;4951484;28;97995;-76
2024/02/01 03:04:58;;;;;;;9.02;5.60;;;;;;;7.48;85.03;101629.16;4951636;28;97548;-76
2024/02/01 03:07:24;;;;;;;13.82;6.10;;;;;;;7.40;84.60;101629.22;4948534;28;98515;-78
2024/02/01 03:09:51;;;;;;;8.27;5.43;;;;;;;7.59;84.71;101625.53;4948918;28;99176;-77
2024/02/01 03:12:17;;;;;;;11.88;6.47;;;;;;;7.66;85.67;101641.25;4947337;28;97610;-77
2024/02/01 03:14:45;;;;;;;10.80;6.32;;;;;;;7.75;85.92;101630.63;4952083;28;100230;-77
2024/02/01 03:17:11;;;;;;;11.18;6.57;;;;;;;7.61;86.11;101639.53;4950230;28;97293;-77
2024/02/01 03:19:39;;;;;;;9.20;5.30;;;;;;;7.60;87.28;101629.91;4949725;28;97670;-77
2024/02/01 03:22:06;;;;;;;8.48;5.30;;;;;;;7.38;87.83;101625.72;4946549;28;99076;-76
2024/02/01 03:24:33;;;;;;;8.10;5.88;;;;;;;7.57;88.37;101627.31;4948592;28;98180;-76
2024/02/01 03:27:00;;;;;;;10.50;5.90;;;;;;;6.97;92.20;101622.53;4949084;28;96876;-77
2024/02/01 03:29:28;;;;;;;11.80;5.40;;;;;;;6.98;93.02;101616.38;4954537;28;99016;-76
2024/02/01 03:31:56;;;;;;;9.23;5.22;;;;;;;7.27;92.35;101611.81;4949150;28;99660;-77
2024/02/01 03:34:26;;;;;;;9.73;6.05;;;;;;;7.56;91.22;101612.41;4947983;28;97205;-76
2024/02/01 03:36:53;;;;;;;8.30;5.70;;;;;;;7.72;90.83;101620.16;4948378;28;97013;-76
2024/02/01 03:39:26;;;;;;;9.40;6.13;;;;;;;7.89;89.12;101612.94;4950251;28;98970;-77
2024/02/01 03:41:54;;;;;;;11.18;6.15;;;;;;;7.87;89.58;101620.00;4946846;28;100197;-77
2024/02/01 03:44:20;;;;;;;8.30;6.05;;;;;;;7.80;90.60;101613.06;4951503;28;96764;-77
2024/02/01 03:46:47;;;;;;;10.50;5.50;;;;;;;7.44;91.83;101604.63;4949625;28;97155;-77
2024/02/01 03:49:15;;;;;;;11.98;6.18;;;;;;;7.79;91.26;101606.06;4949526;28;98911;-77
2024/02/01 03:51:41;;;;;;;11.65;6.63;;;;;;;7.45;92.97;101611.63;4943941;28;101656;-77
2024/02/01 03:54:08;;;;;;;7.63;5.43;;;;;;;7.30;93.34;101605.63;4946907;28;97785;-76
2024/02/01 03:56:35;;;;;;;14.07;6.30;;;;;;;7.58;93.52;101609.75;4949099;28;97526;-76
2024/02/01 03:59:02;;;;;;;9.50;6.13;;;;;;;7.64;92.70;101601.81;4949928;28;97567;-77
2024/02/01 04:01:28;;;;;;;9.73;5.78;;;;;;;7.48;93.11;101611.59;4946948;28;98793;-77
2024/02/01 04:03:55;;;;;;;14.20;6.63;;;;;;;7.41;94.37;101609.06;4950780;28;96936;-76
2024/02/01 04:06:23;;;;;;;8.25;5.32;;;;;;;7.30;94.02;101617.00;4949001;28;97279;-75
2024/02/01 04:08:50;;;;;;;10.63;6.05;;;;;;;7.57;93.61;101595.75;4947740;28;99035;-75
2024/02/01 04:11:16;;;;;;;10.95;6.35;;;;;;;7.26;95.29;101609.19;4952787;28;99210;-76
2024/02/01 04:13:42;;;;;;;9.35;6.50;;;;;;;7.52;94.95;101609.81;4945082;28;97404;-76
2024/02/01 04:16:09;;;;;;;10.70;6.38;;;;;;;7.28;95.53;101607.41;4950205;28;98517;-76
2024/02/01 04:18:35;;;;;;;12.68;6.97;;;;;;;7.48;94.07;101598.44;4948164;28;98873;-76
2024/02/01 04:21:02;;;;;;;11.75;6.70;;;;;;;7.27;96.09;101598.66;4948365;28;98297;-76
2024/02/01 04:23:30;;;;;;;12.73;7.35;;;;;;;7.33;95.74;101603.88;4948645;28;97211;-76
2024/02/01 04:25:57;;;;;;;10.63;6.47;;;;;;;7.05;98.08;101597.06;4944870;28;96861;-75
2024/02/01 04:28:24;;;;;;;10.65;6.43;;;;;;;7.69;95.31;101613.16;4949332;28;99399;-76
2024/02/01 04:30:51;;;;;;;9.48;6.28;;;;;;;7.36;95.05;101598.56;4946304;28;97893;-75
2024/02/01 04:33:18;;;;;;;12.27;6.40;;;;;;;7.39;96.42;101606.44;4946622;28;97035;-76
2024/02/01 04:35:44;;;;;;;12.95;6.47;;;;;;;7.40;96.21;101617.81;4947792;28;97305;-76
2024/02/01 04:38:11;;;;;;;12.30;7.60;;;;;;;7.20;97.85;101616.25;4948387;28;98872;-76
2024/02/01 04:40:38;;;;;;;11.45;7.38;;;;;;;7.40;97.92;101620.47;4948485;28;98830;-76
2024/02/01 04:43:05;;;;;;;12.20;6.90;;;;;;;7.44;97.59;101612.53;4945889;28;97185;-76
2024/02/01 04:45:31;;;;;;;13.38;6.85;;;;;;;7.30;99.30;101632.78;4948143;28;96920;-76
2024/02/01 04:47:58;;;;;;;14.60;7.82;;;;;;;7.72;98.31;101626.28;4946193;28;99996;-76
2024/02/01 04:50:24;;;;;;;13.32;8.13;;;;;;;7.61;98.23;101631.63;4950228;28;99173;-78
2024/02/01 04:52:51;;;;;;;14.73;7.82;;;;;;;7.76;98.75;101633.25;4944749;28;98476;-78
2024/02/01 04:55:18;;;;;;;13.48;7.70;;;;;;;7.84;97.78;101635.81;4947220;28;97355;-78
2024/02/01 04:57:46;;;;;;;15.00;8.15;;;;;;;7.58;98.21;101618.53;4949062;28;98893;-77
2024/02/01 05:00:17;;;;;;;20.00;7.57;;;;;;;7.47;100.00;101624.78;4949352;28;100311;-77
2024/02/01 05:02:46;;;;;;;11.23;7.10;;;;;;;7.49;100.00;101628.25;4949276;28;97574;-78
2024/02/01 05:05:15;;;;;;;13.38;8.27;;;;;;;7.36;100.00;101630.09;4953512;28;97124;-78
2024/02/01 05:07:41;;;;;;;13.32;8.85;;;;;;;7.70;100.00;101632.44;4950368;28;99144;-78
2024/02/01 05:10:09;;;;;;;15.70;9.48;;;;;;;7.42;100.00;101637.94;4951588;28;101854;-78
2024/02/01 05:12:35;;;;;;;12.82;8.60;;;;;;;7.43;100.00;101625.66;4950022;28;97357;-78
2024/02/01 05:15:03;;;;;;;13.75;9.23;;;;;;;7.43;100.00;101623.03;4952635;28;98781;-78
2024/02/01 05:17:30;;;;;;;11.57;7.78;;;;;;;7.44;100.00;101620.41;4950839;28;98965;-78
2024/02/01 05:19:58;;;;;;;13.95;8.60;;;;;;;7.59;100.00;101627.28;4949403;28;99045;-78
2024/02/01 05:22:25;;;;;;;15.85;9.88;;;;;;;7.95;100.00;101629.53;4950407;28;97134;-78
2024/02/01 05:24:51;;;;;;;16.50;9.95;;;;;;;8.12;99.70;101621.47;4950878;28;96824;-77
2024/02/01 05:27:20;;;;;;;14.13;8.43;;;;;;;8.08;99.42;101634.66;4951508;28;97658;-77
2024/02/01 05:29:49;;;;;;;12.02;8.75;;;;;;;7.87;100.00;101636.66;4952288;28;97004;-76
2024/02/01 05:32:18;;;;;;;13.23;8.48;;;;;;;7.84;100.00;101630.56;4953852;28;98369;-79
2024/02/01 05:34:46;;;;;;;13.02;9.13;;;;;;;7.50;100.00;101625.63;4951777;28;97365;-77
2024/02/01 05:37:13;;;;;;;13.80;7.93;;;;;;;7.70;100.00;101638.56;4951380;28;99726;-77
2024/02/01 05:39:44;;;;;;;14.38;9.50;;;;;;;7.79;100.00;101642.88;4952079;28;98014;-80
2024/02/01 05:42:13;;;;;;;15.07;8.93;;;;;;;7.48;100.00;101645.78;4948857;28;97409;-76
2024/02/01 05:44:40;;;;;;;17.13;8.98;;;;;;;7.63;100.00;101646.53;4950356;28;96783;-76
2024/02/01 05:47:06;;;;;;;12.80;8.32;;;;;;;7.81;100.00;101649.88;4945890;28;99234;-76
2024/02/01 05:49:34;;;;;;;19.17;10.00;;;;;;;7.87;100.00;101660.34;4951942;28;98891;-76
2024/02/01 05:52:03;;;;;;;13.02;9.40;;;;;;;7.85;100.00;101653.34;4950139;28;97332;-76
2024/02/01 05:54:29;;;;;;;13.18;9.45;;;;;;;7.88;100.00;101664.69;4949417;28;97821;-76
2024/02/01 05:56:56;;;;;;;14.80;9.63;;;;;;;8.01;100.00;101663.69;4951976;28;98873;-76
2024/02/01 05:59:22;;;;;;;18.23;9.95;;;;;;;8.19;100.00;101673.19;4950819;28;99053;-77
2024/02/01 06:01:49;;;;;;;19.35;10.85;;;;;;;8.16;100.00;101672.31;4949285;28;97076;-77
2024/02/01 06:04:16;;;;;;;10.48;6.95;;;;;;;7.99;100.00;101668.13;4954726;28;96974;-78
2024/02/01 06:06:46;;;;;;;16.45;10.25;;;;;;;8.15;100.00;101673.19;4952376;28;100695;-77
2024/02/01 06:09:13;;;;;;;16.83;10.25;;;;;;;8.09;100.00;101670.63;4950519;28;100104;-77
2024/02/01 06:11:40;;;;;;;14.38;9.77;;;;;;;7.91;100.00;101679.59;4946749;28;97202;-77
2024/02/01 06:14:06;;;;;;;17.17;10.27;;;;;;;8.07;100.00;101673.31;4951298;28;97974;-78
2024/02/01 06:16:33;;;;;;;12.60;7.22;;;;;;;7.65;100.00;101676.34;4950456;28;99341;-78
2024/02/01 06:18:59;;;;;;;18.33;10.55;;;;;;;7.69;100.00;101681.56;4952104;28;98242;-77
2024/02/01 06:21:27;;;;;;;14.90;9.80;;;;;;;8.05;100.00;101690.00;4956473;28;97201;-77
2024/02/01 06:23:55;;;;;;;13.68;10.55;;;;;;;8.40;100.00;101690.53;4952083;28;96638;-77
2024/02/01 06:26:25;;;;;;;13.02;10.13;;;;;;;8.30;100.00;101683.56;4950523;28;99564;-77
2024/02/01 06:28:51;;;;;;;15.32;10.25;;;;;;;8.71;100.00;101693.66;4948565;28;99116;-77
2024/02/01 06:31:18;;;;;;;16.50;10.48;;;;;;;8.63;100.00;101687.59;4949517;28;97236;-77
2024/02/01 06:33:44;;;;;;;14.32;10.77;;;;;;;8.43;100.00;101689.59;4949667;28;97586;-77
2024/02/01 06:36:13;;;;;;;15.27;10.80;;;;;;;8.46;100.00;101697.47;4949135;28;99972;-77
2024/02/01 06:39:06;;;;;;;16.20;10.57;;;;;;;8.33;100.00;101699.38;4950068;28;98923;-77
2024/02/01 06:42:01;;;;;;;16.95;10.45;;;;;;;8.46;100.00;101706.25;4945604;28;97459;-76
2024/02/01 06:44:28;;;;;;;13.93;10.95;;;;;;;8.90;100.00;101708.34;4948077;28;96928;-77
2024/02/01 06:47:11;;;;;;;15.90;10.55;;;;;;;8.91;99.46;101710.09;4949150;28;98308;-76
2024/02/01 06:49:59;;;;;;;25.38;14.00;;;;;;;9.40;96.56;101715.50;4946262;28;99135;-76
2024/02/01 06:52:35;;;;;;;18.85;8.85;;;;;;;9.61;94.59;101719.59;4943957;28;97436;-76
2024/02/01 06:57:53;;;;;;;15.93;10.70;;;;;;;9.23;97.31;101729.84;4936658;28;99070;-77
2024/02/01 07:00:40;;;;;;;14.40;10.93;;;;;;;8.81;99.40;101732.16;4935111;28;98915;-77
2024/02/01 07:03:31;;;;;;;17.67;10.63;;;;;;;8.91;99.16;101740.84;4941073;28;97637;-77
2024/02/01 07:06:05;;;;;;;14.68;10.05;;;;;;;9.12;98.23;101740.56;4950673;28;98685;-78
2024/02/01 07:08:45;;;;;;;18.95;11.55;;;;;;;9.18;98.25;101751.91;4946644;28;98748;-76
2024/02/01 07:11:14;;;;;;;15.10;9.65;;;;;;;9.16;97.98;101752.78;4943273;28;98957;-77
2024/02/01 07:13:57;;;;;;;16.25;10.38;;;;;;;9.44;95.83;101753.28;4949584;28;96888;-78
2024/02/01 07:16:24;;;;;;;13.75;9.75;;;;;;;9.19;97.63;101768.56;4947590;28;97327;-76
2024/02/01 07:19:09;;;;;;;18.42;12.15;;;;;;;9.35;96.56;101767.47;4948760;28;98746;-77
2024/02/01 07:21:59;;;;;;;14.60;9.43;;;;;;;8.89;98.50;101772.47;4949353;28;98744;-77
2024/02/01 07:24:37;;;;;;;12.00;8.48;;;;;;;8.90;98.79;101776.88;4949435;28;97300;-77
2024/02/01 07:57:35;;;;;;;15.23;9.63;;;;;;;9.15;97.34;101778.28;4947540;28;98250;-77
2024/02/01 08:00:17;;;;;;;11.10;6.90;;;;;;;9.68;91.83;101818.00;4921383;28;98031;-76
2024/02/01 08:02:49;;;;;;;13.88;8.18;;;;;;;10.05;89.99;101836.78;4947914;28;100653;-77
2024/02/01 08:07:59;;;;;;;14.10;7.43;;;;;;;9.81;89.87;101846.84;4946215;28;96750;-76
2024/02/01 08:10:26;;;;;;;13.30;7.97;;;;;;;10.04;89.31;101848.25;4945636;28;97234;-76
2024/02/01 08:12:55;;;;;;;9.10;5.57;;;;;;;10.04;87.91;101840.34;4943787;28;99907;-76
2024/02/01 08:15:22;;;;;;;16.77;6.18;;;;;;;10.08;87.41;101863.16;4945456;28;101685;-77
2024/02/01 08:17:51;;;;;;;9.27;5.20;;;;;;;10.21;85.27;101864.72;4948920;28;98018;-76
2024/02/01 08:20:19;;;;;;;10.32;5.35;;;;;;;10.30;85.15;101869.88;4946163;28;97047;-77
2024/02/01 08:22:45;;;;;;;9.20;5.63;;;;;;;10.76;83.03;101880.53;4947839;28;98920;-77
2024/02/01 08:25:12;;;;;;;21.67;6.18;;;;;;;11.01;81.57;101894.16;4949631;28;98145;-76
2024/02/01 08:27:49;;;;;;;8.60;5.53;;;;;;;10.81;81.62;101888.34;4949490;28;97277;-77
2024/02/01 08:30:15;;;;;;;;;;;;;;;11.08;80.14;101887.84;4951677;28;96977;-76
2024/02/01 08:32:42;;;;;;;16.50;5.22;;;;;;;10.74;80.20;101893.75;4948301;28;99542;-77
2024/02/01 08:35:10;;;;;;;10.70;4.80;;;;;;;10.77;80.73;101887.53;4949770;28;98153;-77
2024/02/01 08:37:38;;;;;;;26.58;6.38;;;;;;;10.93;79.38;101894.28;4951701;28;97500;-77
2024/02/01 08:40:16;;;;;;;13.40;4.85;;;;;;;10.64;80.61;101900.09;4953103;28;97221;-77
2024/02/01 08:42:43;;;;;;;13.00;4.95;;;;;;;10.77;79.45;101909.56;4948575;28;100975;-76
2024/02/01 08:45:10;;;;;;;15.75;5.82;;;;;;;11.07;78.22;101904.63;4950802;28;99099;-78
2024/02/01 08:47:37;;;;;;;24.23;5.93;;;;;;;11.24;77.33;101902.50;4948375;28;96869;-76
2024/02/01 08:50:06;;;;;;;25.80;6.03;;;;;;;11.12;76.86;101905.38;4950913;28;97298;-77
2024/02/01 08:52:34;;;;;;;26.65;6.00;;;;;;;11.07;77.45;101908.13;4947700;28;101258;-77
2024/02/01 08:55:00;;;;;;;23.42;5.45;;;;;;;11.31;76.43;101906.75;4947398;28;98954;-78
2024/02/01 08:57:27;;;;;;;12.15;5.10;;;;;;;11.00;76.01;101905.63;4951004;28;98177;-77
2024/02/01 08:59:53;;;;;;;16.75;4.53;;;;;;;10.99;76.18;101914.47;4950876;28;96884;-78
2024/02/01 09:02:19;;;;;;;15.55;4.50;;;;;;;11.12;76.16;101916.84;4947772;28;99566;-77
2024/02/01 09:04:46;;;;;;;14.10;3.63;;;;;;;10.98;76.60;101915.34;4951265;28;98691;-75
2024/02/01 09:07:14;;;;;;;13.70;3.78;;;;;;;10.86;77.77;101903.22;4951468;28;96854;-77
2024/02/01 09:09:42;;;;;;;14.63;3.63;;;;;;;10.43;79.47;101911.06;4949723;28;97377;-77
2024/02/01 09:12:16;;;;;;;8.63;3.60;;;;;;;10.53;79.98;101920.56;4946158;28;98911;-78
2024/02/01 09:14:42;;;;;;;12.18;4.30;;;;;;;10.52;80.42;101913.53;4951432;28;97813;-77
2024/02/01 09:17:09;;;;;;;17.67;3.78;;;;;;;10.59;77.50;101898.44;4947862;28;99421;-77
2024/02/01 09:19:35;;;;;;;14.80;3.97;;;;;;;10.69;79.04;101910.59;4951041;28;97845;-78
2024/02/01 09:22:03;;;;;;;12.55;4.55;;;;;;;10.94;76.92;101908.38;4948960;28;99028;-77
2024/02/01 09:24:29;;;;;;;11.38;4.55;;;;;;;11.23;76.06;101915.75;4948499;28;97634;-77
2024/02/01 09:26:57;;;;;;;18.75;5.28;;;;;;;11.55;75.07;101922.13;4946828;28;96917;-78
2024/02/01 09:29:26;;;;;;;22.15;4.20;;;;;;;11.69;73.07;101919.19;4951486;28;97140;-77
2024/02/01 09:31:55;;;;;;;20.50;4.47;;;;;;;11.97;70.70;101919.50;4942918;28;99427;-78
2024/02/01 09:34:22;;;;;;;17.80;2.92;;;;;;;11.36;70.13;101923.41;4948110;28;98897;-77
2024/02/01 09:36:50;;;;;;;18.48;3.03;;;;;;;10.86;72.16;101907.66;4947339;28;97872;-77
2024/02/01 09:39:17;;;;;;;14.40;3.17;;;;;;;11.13;72.68;101918.59;4949153;28;96856;-77
2024/02/01 09:41:45;;;;;;;13.00;2.67;;;;;;;11.48;69.77;101917.91;4946434;28;98981;-77
2024/02/01 09:44:13;;;;;;;14.43;2.67;;;;;;;11.40;70.24;101921.59;4944554;28;98805;-78
2024/02/01 09:46:40;;;;;;;21.25;2.78;;;;;;;11.69;68.20;101928.91;4947503;28;98899;-77
2024/02/01 09:49:08;;;;;;;14.27;2.55;;;;;;;11.56;66.15;101930.94;4952901;28;96889;-77
2024/02/01 09:51:34;;;;;;;16.65;2.40;;;;;;;10.74;68.49;101928.13;4945504;28;99459;-77
2024/02/01 09:54:01;;;;;;;16.20;3.30;;;;;;;11.02;68.61;101932.94;4944160;28;98083;-78
2024/02/01 09:56:29;;;;;;;17.73;2.45;;;;;;;11.23;67.77;101921.03;4947996;28;97492;-78
2024/02/01 09:58:56;;;;;;;15.45;2.95;;;;;;;11.38;67.44;101940.16;4950071;28;98097;-77
2024/02/01 10:01:24;;;;;;;26.02;3.22;;;;;;;11.63;65.11;101921.09;4946902;28;98690;-77
2024/02/01 10:03:52;;;;;;;16.70;2.55;;;;;;;11.32;65.35;101937.63;4943695;28;98778;-77
2024/02/01 10:06:19;;;;;;;31.90;4.40;;;;;;;11.81;64.60;101944.59;4950866;28;97713;-77
2024/02/01 10:08:46;;;;;;;18.98;2.67;;;;;;;11.68;63.73;101932.50;4949259;28;96834;-77
2024/02/01 10:11:19;;;;;;;16.17;3.13;;;;;;;11.55;64.22;101948.59;4942277;28;99659;-80
2024/02/01 10:13:46;;;;;;;13.27;3.15;;;;;;;11.88;61.90;101935.63;4944347;28;98875;-77
2024/02/01 10:16:13;;;;;;;13.00;2.33;;;;;;;11.88;60.35;101938.25;4955285;28;98734;-77
2024/02/01 10:18:41;;;;;;;11.40;1.77;;;;;;;11.71;59.37;101937.69;4950302;28;97082;-77
2024/02/01 10:21:21;;;;;;;14.57;2.58;;;;;;;11.03;61.33;101943.44;4940151;28;102017;-78
2024/02/01 10:23:48;;;;;;;12.93;2.03;;;;;;;11.21;62.05;101930.81;4945522;28;100823;-78
2024/02/01 10:26:23;;;;;;;8.73;1.60;;;;;;;11.16;61.78;101928.22;4948647;28;97976;-78
2024/02/01 10:28:50;;;;;;;10.45;1.70;;;;;;;11.78;60.28;101936.69;4943581;28;99436;-77
2024/02/01 10:31:19;;;;;;;13.35;1.92;;;;;;;11.76;59.56;101934.09;4944838;28;99525;-76
2024/02/01 10:33:49;;;;;;;8.57;1.77;;;;;;;11.47;59.20;101937.31;4948296;28;101631;-76
2024/02/01 10:36:20;;;;;;;14.90;2.63;;;;;;;11.77;58.89;101942.91;4951011;28;96772;-77
2024/02/01 10:38:53;;;;;;;11.55;2.33;;;;;;;12.00;57.72;101932.69;4945964;28;98666;-78
2024/02/01 10:41:28;;;;;;;19.27;2.40;;;;;;;12.21;57.04;101923.34;4946036;28;98223;-78
2024/02/01 10:43:59;;;;;;;14.25;2.58;;;;;;;12.47;56.81;101936.84;4945813;28;101523;-78
2024/02/01 10:46:37;;;;;;;18.17;2.33;;;;;;;12.75;55.20;101929.06;4947214;28;96984;-78
2024/02/01 10:49:17;;;;;;;14.18;2.65;;;;;;;12.87;54.29;101942.00;4949889;28;97309;-78
2024/02/01 10:51:45;;;;;;;19.10;2.50;;;;;;;12.30;55.96;101936.38;4938963;28;100743;-78
2024/02/01 10:54:12;;;;;;;15.02;2.25;;;;;;;11.82;58.21;101936.59;4946338;28;98233;-78
2024/02/01 10:56:39;;;;;;;16.13;2.80;;;;;;;11.54;59.33;101932.78;4947013;28;97374;-77
2024/02/01 10:59:08;;;;;;;17.08;2.38;;;;;;;11.87;58.59;101941.81;4945373;28;100289;-78
2024/02/01 11:01:36;;;;;;;16.20;2.53;;;;;;;11.21;60.26;101926.38;4945021;28;101889;-79
2024/02/01 11:04:06;;;;;;;12.75;2.92;;;;;;;11.09;60.67;101926.63;4945520;28;101635;-71
2024/02/01 11:06:36;;;;;;;10.50;2.03;;;;;;;11.32;59.78;101936.75;4944653;28;97838;-69
2024/02/01 11:09:18;;;;;;;17.52;2.33;;;;;;;11.85;58.29;101930.38;4946027;28;98987;-70
2024/02/01 11:11:48;;;;;;;10.75;2.40;;;;;;;12.73;55.16;101934.41;4946234;28;99305;-70
2024/02/01 11:14:18;;;;;;;12.82;2.17;;;;;;;12.21;55.79;101934.81;4946220;28;98894;-72
2024/02/01 11:16:48;;;;;;;12.65;2.38;;;;;;;12.06;55.98;101929.03;4947438;28;96886;-70
2024/02/01 11:19:15;;;;;;;19.77;3.55;;;;;;;11.57;57.57;101925.63;4946664;28;96926;-70
2024/02/01 11:21:54;;;;;;;15.38;2.72;;;;;;;12.13;56.41;101942.09;4939489;28;99324;-70
2024/02/01 11:24:22;;;;;;;18.10;2.42;;;;;;;11.57;56.68;101944.16;4946436;28;102101;-70
2024/02/01 11:26:54;;;;;;;14.77;2.42;;;;;;;12.00;56.64;101939.75;4945266;28;97438;-70
2024/02/01 11:29:24;;;;;;;18.23;2.97;;;;;;;12.72;54.00;101951.25;4942678;28;96933;-70
2024/02/01 11:31:57;;;;;;;18.63;2.00;;;;;;;12.04;53.94;101952.03;4936308;28;99020;-70
2024/02/01 11:34:24;;;;;;;14.68;2.45;;;;;;;12.38;54.47;101951.22;4947705;28;101358;-70
2024/02/01 11:36:53;;;;;;;17.17;3.22;;;;;;;12.51;53.47;101949.13;4947777;28;97122;-70
2024/02/01 11:39:20;;;;;;;12.25;2.65;;;;;;;12.60;53.44;101964.81;4951270;28;97431;-71
2024/02/01 11:41:48;;;;;;;19.92;2.97;;;;;;;12.79;52.45;101949.31;4941483;28;98911;-70
2024/02/01 11:44:15;;;;;;;17.25;2.58;;;;;;;12.83;51.98;101953.63;4946530;28;98761;-70
2024/02/01 11:46:45;;;;;;;14.32;2.58;;;;;;;12.77;52.22;101956.44;4938518;28;96851;-70
2024/02/01 11:49:16;;;;;;;14.57;3.20;;;;;;;12.85;50.94;101949.16;4947031;28;97140;-70
2024/02/01 11:51:46;;;;;;;15.20;3.05;;;;;;;13.01;50.53;101952.28;4940720;28;99100;-72
2024/02/01 11:54:15;;;;;;;11.35;2.22;;;;;;;12.54;51.27;101940.22;4943308;28;99767;-70
2024/02/01 11:56:43;;;;;;;17.52;2.28;;;;;;;12.68;51.51;101949.56;4949672;28;96778;-69
2024/02/01 11:59:10;;;;;;;12.32;2.25;;;;;;;12.62;51.32;101946.22;4947439;28;96860;-70
2024/02/01 12:01:37;;;;;;;12.20;2.28;;;;;;;11.70;54.64;101957.13;4947053;28;99180;-69
2024/02/01 12:04:06;;;;;;;18.35;2.83;;;;;;;12.16;53.30;101963.22;4949215;28;99993;-69